sensor_id;sensor_type;location;lat;lon;timestamp;P1;durP1;ratioP1;P2;durP2;ratioP2
3849;SDS011;1940;51.052;13.678;2022-08-02T00:00:08;2.20;;;1.70;;
3849;SDS011;1940;51.052;13.678;2022-08-02T00:02:35;2.73;;;2.40;;
3849;SDS011;1940;51.052;13.678;2022-08-02T00:05:01;2.00;;;1.80;;
3849;SDS011;1940;51.052;13.678;2022-08-02T00:07:26;3.33;;;2.07;;
3849;SDS011;1940;51.052;13.678;2022-08-02T00:09:52;5.30;;;2.00;;
3849;SDS011;1940;51.052;13.678;2022-08-02T00:12:18;2.07;;;1.87;;
3849;SDS011;1940;51.052;13.678;2022-08-02T00:14:43;2.00;;;1.63;;
3849;SDS011;1940;51.052;13.678;2022-08-02T00:17:09;3.03;;;1.83;;
3849;SDS011;1940;51.052;13.678;2022-08-02T00:19:35;2.17;;;1.90;;
3849;SDS011;1940;51.052;13.678;2022-08-02T00:22:00;2.73;;;2.00;;
3849;SDS011;1940;51.052;13.678;2022-08-02T00:24:26;2.40;;;2.00;;
3849;SDS011;1940;51.052;13.678;2022-08-02T00:26:52;2.10;;;1.90;;
3849;SDS011;1940;51.052;13.678;2022-08-02T00:29:17;2.60;;;1.87;;
3849;SDS011;1940;51.052;13.678;2022-08-02T00:31:43;2.80;;;1.90;;
3849;SDS011;1940;51.052;13.678;2022-08-02T00:34:08;2.50;;;1.90;;
3849;SDS011;1940;51.052;13.678;2022-08-02T00:36:34;2.63;;;2.07;;
3849;SDS011;1940;51.052;13.678;2022-08-02T00:39:00;2.20;;;2.00;;
3849;SDS011;1940;51.052;13.678;2022-08-02T00:41:25;2.57;;;1.90;;
3849;SDS011;1940;51.052;13.678;2022-08-02T00:43:51;2.43;;;2.23;;
3849;SDS011;1940;51.052;13.678;2022-08-02T00:46:17;2.27;;;2.07;;
3849;SDS011;1940;51.052;13.678;2022-08-02T00:48:44;2.10;;;1.90;;
3849;SDS011;1940;51.052;13.678;2022-08-02T00:51:10;3.10;;;1.90;;
3849;SDS011;1940;51.052;13.678;2022-08-02T00:53:37;2.30;;;2.00;;
3849;SDS011;1940;51.052;13.678;2022-08-02T00:56:03;2.23;;;1.97;;
3849;SDS011;1940;51.052;13.678;2022-08-02T00:58:29;7.63;;;2.73;;
3849;SDS011;1940;51.052;13.678;2022-08-02T01:00:54;6.10;;;2.23;;
3849;SDS011;1940;51.052;13.678;2022-08-02T01:03:22;2.70;;;2.00;;
3849;SDS011;1940;51.052;13.678;2022-08-02T01:05:49;4.00;;;2.30;;
3849;SDS011;1940;51.052;13.678;2022-08-02T01:08:14;3.20;;;2.30;;
3849;SDS011;1940;51.052;13.678;2022-08-02T01:10:40;3.73;;;2.20;;
3849;SDS011;1940;51.052;13.678;2022-08-02T01:13:06;3.73;;;2.10;;
3849;SDS011;1940;51.052;13.678;2022-08-02T01:15:32;3.00;;;2.10;;
3849;SDS011;1940;51.052;13.678;2022-08-02T01:18:04;3.43;;;2.50;;
3849;SDS011;1940;51.052;13.678;2022-08-02T01:29:28;2.40;;;2.00;;
3849;SDS011;1940;51.052;13.678;2022-08-02T01:37:18;2.40;;;2.00;;
3849;SDS011;1940;51.052;13.678;2022-08-02T01:39:47;2.83;;;2.10;;
3849;SDS011;1940;51.052;13.678;2022-08-02T01:42:18;4.00;;;2.53;;
3849;SDS011;1940;51.052;13.678;2022-08-02T01:44:47;3.50;;;2.20;;
3849;SDS011;1940;51.052;13.678;2022-08-02T01:47:16;2.13;;;1.93;;
3849;SDS011;1940;51.052;13.678;2022-08-02T01:49:45;4.30;;;2.17;;
3849;SDS011;1940;51.052;13.678;2022-08-02T01:52:14;2.83;;;2.33;;
3849;SDS011;1940;51.052;13.678;2022-08-02T01:57:39;4.70;;;2.60;;
3849;SDS011;1940;51.052;13.678;2022-08-02T02:00:09;10.17;;;2.20;;
3849;SDS011;1940;51.052;13.678;2022-08-02T02:02:37;3.20;;;2.40;;
3849;SDS011;1940;51.052;13.678;2022-08-02T02:05:06;4.37;;;2.37;;
3849;SDS011;1940;51.052;13.678;2022-08-02T02:07:37;2.50;;;2.30;;
3849;SDS011;1940;51.052;13.678;2022-08-02T02:10:05;4.07;;;3.10;;
3849;SDS011;1940;51.052;13.678;2022-08-02T02:12:32;2.90;;;2.47;;
3849;SDS011;1940;51.052;13.678;2022-08-02T02:15:01;3.57;;;2.63;;
3849;SDS011;1940;51.052;13.678;2022-08-02T02:17:28;3.17;;;2.33;;
3849;SDS011;1940;51.052;13.678;2022-08-02T02:19:56;2.97;;;2.30;;
3849;SDS011;1940;51.052;13.678;2022-08-02T02:22:24;2.80;;;2.33;;
3849;SDS011;1940;51.052;13.678;2022-08-02T02:24:50;2.50;;;2.03;;
3849;SDS011;1940;51.052;13.678;2022-08-02T02:27:16;2.67;;;2.10;;
3849;SDS011;1940;51.052;13.678;2022-08-02T02:29:44;3.93;;;2.60;;
3849;SDS011;1940;51.052;13.678;2022-08-02T02:32:13;3.70;;;2.40;;
3849;SDS011;1940;51.052;13.678;2022-08-02T02:34:41;4.50;;;2.50;;
3849;SDS011;1940;51.052;13.678;2022-08-02T02:37:15;3.30;;;2.50;;
3849;SDS011;1940;51.052;13.678;2022-08-02T02:39:44;3.30;;;2.90;;
3849;SDS011;1940;51.052;13.678;2022-08-02T02:42:14;3.77;;;2.50;;
3849;SDS011;1940;51.052;13.678;2022-08-02T02:44:41;2.97;;;2.43;;
3849;SDS011;1940;51.052;13.678;2022-08-02T02:47:08;3.53;;;2.80;;
3849;SDS011;1940;51.052;13.678;2022-08-02T02:49:35;3.90;;;2.73;;
3849;SDS011;1940;51.052;13.678;2022-08-02T02:52:03;3.90;;;2.90;;
3849;SDS011;1940;51.052;13.678;2022-08-02T02:54:31;4.40;;;2.67;;
3849;SDS011;1940;51.052;13.678;2022-08-02T02:56:58;4.07;;;3.23;;
3849;SDS011;1940;51.052;13.678;2022-08-02T02:59:25;3.83;;;3.00;;
3849;SDS011;1940;51.052;13.678;2022-08-02T03:01:51;3.40;;;2.80;;
3849;SDS011;1940;51.052;13.678;2022-08-02T03:04:18;4.13;;;3.00;;
3849;SDS011;1940;51.052;13.678;2022-08-02T03:06:45;3.10;;;2.53;;
3849;SDS011;1940;51.052;13.678;2022-08-02T03:09:11;6.90;;;3.20;;
3849;SDS011;1940;51.052;13.678;2022-08-02T03:11:37;5.30;;;3.50;;
3849;SDS011;1940;51.052;13.678;2022-08-02T03:14:04;4.43;;;3.40;;
3849;SDS011;1940;51.052;13.678;2022-08-02T03:16:33;3.97;;;3.20;;
3849;SDS011;1940;51.052;13.678;2022-08-02T03:19:05;3.73;;;3.10;;
3849;SDS011;1940;51.052;13.678;2022-08-02T03:21:31;4.30;;;3.37;;
3849;SDS011;1940;51.052;13.678;2022-08-02T03:23:56;8.93;;;3.53;;
3849;SDS011;1940;51.052;13.678;2022-08-02T03:26:22;5.87;;;4.10;;
3849;SDS011;1940;51.052;13.678;2022-08-02T03:28:48;7.13;;;3.83;;
3849;SDS011;1940;51.052;13.678;2022-08-02T03:31:13;5.00;;;3.60;;
3849;SDS011;1940;51.052;13.678;2022-08-02T03:33:39;3.40;;;2.90;;
3849;SDS011;1940;51.052;13.678;2022-08-02T03:36:07;3.70;;;3.20;;
3849;SDS011;1940;51.052;13.678;2022-08-02T03:38:36;4.07;;;2.97;;
3849;SDS011;1940;51.052;13.678;2022-08-02T03:41:03;4.00;;;3.30;;
3849;SDS011;1940;51.052;13.678;2022-08-02T03:43:29;4.53;;;3.10;;
3849;SDS011;1940;51.052;13.678;2022-08-02T03:45:56;3.67;;;2.90;;
3849;SDS011;1940;51.052;13.678;2022-08-02T03:48:27;5.53;;;3.80;;
3849;SDS011;1940;51.052;13.678;2022-08-02T03:50:57;3.50;;;3.00;;
3849;SDS011;1940;51.052;13.678;2022-08-02T03:53:24;4.30;;;3.20;;
3849;SDS011;1940;51.052;13.678;2022-08-02T03:55:50;4.20;;;3.00;;
3849;SDS011;1940;51.052;13.678;2022-08-02T03:58:19;3.10;;;2.70;;
3849;SDS011;1940;51.052;13.678;2022-08-02T04:00:46;4.33;;;2.93;;
3849;SDS011;1940;51.052;13.678;2022-08-02T04:03:13;4.03;;;2.90;;
3849;SDS011;1940;51.052;13.678;2022-08-02T04:05:39;4.07;;;3.10;;
3849;SDS011;1940;51.052;13.678;2022-08-02T04:08:05;5.40;;;3.20;;
3849;SDS011;1940;51.052;13.678;2022-08-02T04:10:30;3.90;;;2.93;;
3849;SDS011;1940;51.052;13.678;2022-08-02T04:13:16;4.10;;;3.27;;
3849;SDS011;1940;51.052;13.678;2022-08-02T04:15:44;6.60;;;3.70;;
3849;SDS011;1940;51.052;13.678;2022-08-02T04:18:12;3.97;;;2.90;;
3849;SDS011;1940;51.052;13.678;2022-08-02T04:20:38;7.93;;;3.83;;
3849;SDS011;1940;51.052;13.678;2022-08-02T04:23:09;5.20;;;2.93;;
3849;SDS011;1940;51.052;13.678;2022-08-02T04:25:38;4.30;;;3.10;;
3849;SDS011;1940;51.052;13.678;2022-08-02T04:28:05;2.70;;;2.40;;
3849;SDS011;1940;51.052;13.678;2022-08-02T04:30:31;3.30;;;2.97;;
3849;SDS011;1940;51.052;13.678;2022-08-02T04:32:58;3.80;;;2.97;;
3849;SDS011;1940;51.052;13.678;2022-08-02T04:35:24;3.83;;;2.77;;
3849;SDS011;1940;51.052;13.678;2022-08-02T04:37:50;5.33;;;3.40;;
3849;SDS011;1940;51.052;13.678;2022-08-02T04:40:17;3.93;;;3.20;;
3849;SDS011;1940;51.052;13.678;2022-08-02T04:42:42;4.23;;;3.30;;
3849;SDS011;1940;51.052;13.678;2022-08-02T04:45:08;11.00;;;3.20;;
3849;SDS011;1940;51.052;13.678;2022-08-02T04:47:35;4.40;;;3.37;;
3849;SDS011;1940;51.052;13.678;2022-08-02T04:50:01;3.73;;;3.10;;
3849;SDS011;1940;51.052;13.678;2022-08-02T04:52:27;3.50;;;2.93;;
3849;SDS011;1940;51.052;13.678;2022-08-02T04:54:53;4.60;;;3.43;;
3849;SDS011;1940;51.052;13.678;2022-08-02T04:57:19;4.43;;;3.30;;
3849;SDS011;1940;51.052;13.678;2022-08-02T05:00:04;4.00;;;3.47;;
3849;SDS011;1940;51.052;13.678;2022-08-02T05:02:32;6.00;;;4.00;;
3849;SDS011;1940;51.052;13.678;2022-08-02T05:04:57;4.50;;;2.97;;
3849;SDS011;1940;51.052;13.678;2022-08-02T05:07:23;4.80;;;3.40;;
3849;SDS011;1940;51.052;13.678;2022-08-02T05:09:49;4.63;;;3.50;;
3849;SDS011;1940;51.052;13.678;2022-08-02T05:12:14;4.43;;;3.73;;
3849;SDS011;1940;51.052;13.678;2022-08-02T05:14:40;5.90;;;3.07;;
3849;SDS011;1940;51.052;13.678;2022-08-02T05:17:05;4.27;;;3.33;;
3849;SDS011;1940;51.052;13.678;2022-08-02T05:19:31;4.40;;;3.30;;
3849;SDS011;1940;51.052;13.678;2022-08-02T05:21:57;5.10;;;3.20;;
3849;SDS011;1940;51.052;13.678;2022-08-02T05:24:23;5.60;;;3.20;;
3849;SDS011;1940;51.052;13.678;2022-08-02T05:26:49;3.20;;;2.90;;
3849;SDS011;1940;51.052;13.678;2022-08-02T05:29:15;4.67;;;3.60;;
3849;SDS011;1940;51.052;13.678;2022-08-02T05:31:41;3.47;;;2.73;;
3849;SDS011;1940;51.052;13.678;2022-08-02T05:34:07;3.80;;;2.90;;
3849;SDS011;1940;51.052;13.678;2022-08-02T05:36:32;3.90;;;3.20;;
3849;SDS011;1940;51.052;13.678;2022-08-02T05:38:58;4.37;;;3.10;;
3849;SDS011;1940;51.052;13.678;2022-08-02T05:41:25;3.83;;;3.07;;
3849;SDS011;1940;51.052;13.678;2022-08-02T05:43:51;8.03;;;3.87;;
3849;SDS011;1940;51.052;13.678;2022-08-02T05:46:16;5.67;;;3.30;;
3849;SDS011;1940;51.052;13.678;2022-08-02T05:48:42;5.40;;;3.33;;
3849;SDS011;1940;51.052;13.678;2022-08-02T05:51:14;4.37;;;3.20;;
3849;SDS011;1940;51.052;13.678;2022-08-02T05:54:14;6.77;;;3.87;;
3849;SDS011;1940;51.052;13.678;2022-08-02T06:05:20;4.57;;;3.17;;
3849;SDS011;1940;51.052;13.678;2022-08-02T06:07:46;5.73;;;3.80;;
3849;SDS011;1940;51.052;13.678;2022-08-02T06:10:14;9.43;;;3.60;;
3849;SDS011;1940;51.052;13.678;2022-08-02T06:15:16;4.00;;;3.07;;
3849;SDS011;1940;51.052;13.678;2022-08-02T06:17:43;4.73;;;3.43;;
3849;SDS011;1940;51.052;13.678;2022-08-02T06:20:09;3.93;;;3.23;;
3849;SDS011;1940;51.052;13.678;2022-08-02T06:22:38;3.67;;;3.10;;
3849;SDS011;1940;51.052;13.678;2022-08-02T06:25:06;2.90;;;2.60;;
3849;SDS011;1940;51.052;13.678;2022-08-02T06:27:32;4.00;;;2.93;;
3849;SDS011;1940;51.052;13.678;2022-08-02T06:29:59;7.97;;;2.80;;
3849;SDS011;1940;51.052;13.678;2022-08-02T06:32:26;3.27;;;2.63;;
3849;SDS011;1940;51.052;13.678;2022-08-02T06:34:52;6.30;;;3.43;;
3849;SDS011;1940;51.052;13.678;2022-08-02T06:37:22;3.60;;;3.30;;
3849;SDS011;1940;51.052;13.678;2022-08-02T06:40:02;3.63;;;3.23;;
3849;SDS011;1940;51.052;13.678;2022-08-02T06:42:43;7.93;;;3.53;;
3849;SDS011;1940;51.052;13.678;2022-08-02T06:45:13;8.50;;;3.13;;
3849;SDS011;1940;51.052;13.678;2022-08-02T06:47:39;3.43;;;3.13;;
3849;SDS011;1940;51.052;13.678;2022-08-02T06:50:05;3.77;;;3.10;;
3849;SDS011;1940;51.052;13.678;2022-08-02T06:52:31;4.90;;;3.40;;
3849;SDS011;1940;51.052;13.678;2022-08-02T06:54:58;8.10;;;3.80;;
3849;SDS011;1940;51.052;13.678;2022-08-02T06:57:26;8.07;;;3.10;;
3849;SDS011;1940;51.052;13.678;2022-08-02T06:59:52;7.03;;;2.97;;
3849;SDS011;1940;51.052;13.678;2022-08-02T07:02:18;6.67;;;3.67;;
3849;SDS011;1940;51.052;13.678;2022-08-02T07:04:44;5.50;;;2.57;;
3849;SDS011;1940;51.052;13.678;2022-08-02T07:07:09;12.33;;;3.03;;
3849;SDS011;1940;51.052;13.678;2022-08-02T07:09:35;7.33;;;3.43;;
3849;SDS011;1940;51.052;13.678;2022-08-02T07:12:01;5.40;;;2.60;;
3849;SDS011;1940;51.052;13.678;2022-08-02T07:14:26;5.33;;;3.37;;
3849;SDS011;1940;51.052;13.678;2022-08-02T07:16:52;3.90;;;2.80;;
3849;SDS011;1940;51.052;13.678;2022-08-02T07:19:18;4.37;;;2.33;;
3849;SDS011;1940;51.052;13.678;2022-08-02T07:21:43;10.03;;;3.20;;
3849;SDS011;1940;51.052;13.678;2022-08-02T07:24:09;2.37;;;2.07;;
3849;SDS011;1940;51.052;13.678;2022-08-02T07:26:34;3.50;;;2.83;;
3849;SDS011;1940;51.052;13.678;2022-08-02T07:29:00;2.60;;;2.40;;
3849;SDS011;1940;51.052;13.678;2022-08-02T07:31:26;4.73;;;2.17;;
3849;SDS011;1940;51.052;13.678;2022-08-02T07:33:52;7.50;;;2.80;;
3849;SDS011;1940;51.052;13.678;2022-08-02T07:36:18;9.83;;;2.80;;
3849;SDS011;1940;51.052;13.678;2022-08-02T07:38:44;11.30;;;2.33;;
3849;SDS011;1940;51.052;13.678;2022-08-02T07:41:09;10.47;;;2.80;;
3849;SDS011;1940;51.052;13.678;2022-08-02T07:43:35;4.07;;;2.23;;
3849;SDS011;1940;51.052;13.678;2022-08-02T07:46:01;5.43;;;2.70;;
3849;SDS011;1940;51.052;13.678;2022-08-02T07:48:26;4.73;;;2.60;;
3849;SDS011;1940;51.052;13.678;2022-08-02T07:50:52;3.83;;;2.33;;
3849;SDS011;1940;51.052;13.678;2022-08-02T07:53:18;3.03;;;2.40;;
3849;SDS011;1940;51.052;13.678;2022-08-02T07:55:43;2.83;;;2.30;;
3849;SDS011;1940;51.052;13.678;2022-08-02T07:58:10;3.67;;;2.10;;
3849;SDS011;1940;51.052;13.678;2022-08-02T08:00:35;6.10;;;2.50;;
3849;SDS011;1940;51.052;13.678;2022-08-02T08:03:01;5.17;;;2.63;;
3849;SDS011;1940;51.052;13.678;2022-08-02T08:05:27;2.53;;;2.10;;
3849;SDS011;1940;51.052;13.678;2022-08-02T08:07:53;3.40;;;2.30;;
3849;SDS011;1940;51.052;13.678;2022-08-02T08:10:18;2.70;;;2.33;;
3849;SDS011;1940;51.052;13.678;2022-08-02T08:12:44;5.97;;;2.57;;
3849;SDS011;1940;51.052;13.678;2022-08-02T08:15:10;3.17;;;1.83;;
3849;SDS011;1940;51.052;13.678;2022-08-02T08:17:36;4.00;;;2.23;;
3849;SDS011;1940;51.052;13.678;2022-08-02T08:20:02;2.47;;;2.10;;
3849;SDS011;1940;51.052;13.678;2022-08-02T08:22:28;4.90;;;2.20;;
3849;SDS011;1940;51.052;13.678;2022-08-02T08:24:56;3.10;;;1.93;;
3849;SDS011;1940;51.052;13.678;2022-08-02T08:27:22;7.37;;;2.70;;
3849;SDS011;1940;51.052;13.678;2022-08-02T08:29:48;2.43;;;2.00;;
3849;SDS011;1940;51.052;13.678;2022-08-02T08:32:14;2.70;;;2.07;;
3849;SDS011;1940;51.052;13.678;2022-08-02T08:34:40;4.53;;;1.80;;
3849;SDS011;1940;51.052;13.678;2022-08-02T08:37:05;9.03;;;2.20;;
3849;SDS011;1940;51.052;13.678;2022-08-02T08:39:31;7.73;;;2.30;;
3849;SDS011;1940;51.052;13.678;2022-08-02T08:41:57;4.20;;;2.17;;
3849;SDS011;1940;51.052;13.678;2022-08-02T08:44:22;3.23;;;2.20;;
3849;SDS011;1940;51.052;13.678;2022-08-02T08:46:48;2.83;;;2.50;;
3849;SDS011;1940;51.052;13.678;2022-08-02T08:51:47;4.60;;;1.80;;
3849;SDS011;1940;51.052;13.678;2022-08-02T08:54:15;3.10;;;2.20;;
3849;SDS011;1940;51.052;13.678;2022-08-02T08:56:43;2.70;;;2.37;;
3849;SDS011;1940;51.052;13.678;2022-08-02T08:59:09;2.50;;;2.27;;
3849;SDS011;1940;51.052;13.678;2022-08-02T09:01:37;3.07;;;2.40;;
3849;SDS011;1940;51.052;13.678;2022-08-02T09:04:03;4.30;;;2.40;;
3849;SDS011;1940;51.052;13.678;2022-08-02T09:06:28;3.30;;;2.17;;
3849;SDS011;1940;51.052;13.678;2022-08-02T09:08:54;2.83;;;2.50;;
3849;SDS011;1940;51.052;13.678;2022-08-02T09:11:23;3.00;;;2.10;;
3849;SDS011;1940;51.052;13.678;2022-08-02T09:13:59;3.73;;;1.90;;
3849;SDS011;1940;51.052;13.678;2022-08-02T09:19:24;2.90;;;1.70;;
3849;SDS011;1940;51.052;13.678;2022-08-02T09:22:00;2.43;;;2.23;;
3849;SDS011;1940;51.052;13.678;2022-08-02T09:24:39;3.90;;;2.10;;
3849;SDS011;1940;51.052;13.678;2022-08-02T09:27:10;2.93;;;2.23;;
3849;SDS011;1940;51.052;13.678;2022-08-02T09:29:51;2.33;;;2.13;;
3849;SDS011;1940;51.052;13.678;2022-08-02T09:32:18;4.20;;;2.13;;
3849;SDS011;1940;51.052;13.678;2022-08-02T09:37:23;2.83;;;1.80;;
3849;SDS011;1940;51.052;13.678;2022-08-02T09:39:50;1.67;;;1.57;;
3849;SDS011;1940;51.052;13.678;2022-08-02T09:42:17;3.20;;;2.03;;
3849;SDS011;1940;51.052;13.678;2022-08-02T09:44:55;3.73;;;2.30;;
3849;SDS011;1940;51.052;13.678;2022-08-02T09:47:22;1.80;;;1.70;;
3849;SDS011;1940;51.052;13.678;2022-08-02T09:49:48;1.83;;;1.73;;
3849;SDS011;1940;51.052;13.678;2022-08-02T09:52:14;4.40;;;1.90;;
3849;SDS011;1940;51.052;13.678;2022-08-02T09:54:45;2.43;;;2.03;;
3849;SDS011;1940;51.052;13.678;2022-08-02T09:57:11;4.90;;;2.00;;
3849;SDS011;1940;51.052;13.678;2022-08-02T09:59:52;2.03;;;1.93;;
3849;SDS011;1940;51.052;13.678;2022-08-02T10:02:19;1.90;;;1.80;;
3849;SDS011;1940;51.052;13.678;2022-08-02T10:04:45;2.73;;;2.20;;
3849;SDS011;1940;51.052;13.678;2022-08-02T10:07:11;3.00;;;2.10;;
3849;SDS011;1940;51.052;13.678;2022-08-02T10:09:38;7.50;;;2.70;;
3849;SDS011;1940;51.052;13.678;2022-08-02T10:12:04;3.60;;;2.50;;
3849;SDS011;1940;51.052;13.678;2022-08-02T10:14:32;5.77;;;2.57;;
3849;SDS011;1940;51.052;13.678;2022-08-02T10:16:58;2.30;;;2.10;;
3849;SDS011;1940;51.052;13.678;2022-08-02T10:19:24;3.23;;;2.80;;
3849;SDS011;1940;51.052;13.678;2022-08-02T10:22:00;2.40;;;2.20;;
3849;SDS011;1940;51.052;13.678;2022-08-02T10:24:32;4.57;;;2.40;;
3849;SDS011;1940;51.052;13.678;2022-08-02T10:27:01;4.43;;;2.03;;
3849;SDS011;1940;51.052;13.678;2022-08-02T10:29:37;3.07;;;2.07;;
3849;SDS011;1940;51.052;13.678;2022-08-02T10:34:59;2.13;;;1.93;;
3849;SDS011;1940;51.052;13.678;2022-08-02T10:37:28;1.63;;;1.60;;
3849;SDS011;1940;51.052;13.678;2022-08-02T10:39:58;1.60;;;1.50;;
3849;SDS011;1940;51.052;13.678;2022-08-02T10:42:43;2.00;;;1.63;;
3849;SDS011;1940;51.052;13.678;2022-08-02T10:45:12;1.87;;;1.67;;
3849;SDS011;1940;51.052;13.678;2022-08-02T10:47:55;2.87;;;1.50;;
3849;SDS011;1940;51.052;13.678;2022-08-02T10:50:50;1.33;;;1.30;;
3849;SDS011;1940;51.052;13.678;2022-08-02T10:53:29;1.40;;;1.40;;
3849;SDS011;1940;51.052;13.678;2022-08-02T10:55:57;2.33;;;2.00;;
3849;SDS011;1940;51.052;13.678;2022-08-02T10:58:27;2.40;;;2.20;;
3849;SDS011;1940;51.052;13.678;2022-08-02T11:00:56;2.03;;;1.93;;
3849;SDS011;1940;51.052;13.678;2022-08-02T11:03:34;2.67;;;1.97;;
3849;SDS011;1940;51.052;13.678;2022-08-02T11:06:10;2.00;;;1.90;;
3849;SDS011;1940;51.052;13.678;2022-08-02T11:08:37;4.50;;;2.10;;
3849;SDS011;1940;51.052;13.678;2022-08-02T11:19:30;2.10;;;2.00;;
3849;SDS011;1940;51.052;13.678;2022-08-02T11:24:29;2.30;;;2.10;;
3849;SDS011;1940;51.052;13.678;2022-08-02T11:26:58;2.30;;;2.10;;
3849;SDS011;1940;51.052;13.678;2022-08-02T11:29:39;2.20;;;2.00;;
3849;SDS011;1940;51.052;13.678;2022-08-02T11:32:16;2.00;;;1.90;;
3849;SDS011;1940;51.052;13.678;2022-08-02T11:34:44;2.20;;;2.10;;
3849;SDS011;1940;51.052;13.678;2022-08-02T11:37:11;2.47;;;2.27;;
3849;SDS011;1940;51.052;13.678;2022-08-02T11:39:36;2.40;;;2.20;;
3849;SDS011;1940;51.052;13.678;2022-08-02T11:42:02;2.20;;;2.00;;
3849;SDS011;1940;51.052;13.678;2022-08-02T11:44:29;2.43;;;2.23;;
3849;SDS011;1940;51.052;13.678;2022-08-02T11:47:04;1.90;;;1.80;;
3849;SDS011;1940;51.052;13.678;2022-08-02T11:49:31;2.30;;;2.10;;
3849;SDS011;1940;51.052;13.678;2022-08-02T11:54:38;7.23;;;2.80;;
3849;SDS011;1940;51.052;13.678;2022-08-02T11:57:09;2.10;;;1.90;;
3849;SDS011;1940;51.052;13.678;2022-08-02T11:59:39;3.10;;;2.17;;
3849;SDS011;1940;51.052;13.678;2022-08-02T12:02:05;2.23;;;2.03;;
3849;SDS011;1940;51.052;13.678;2022-08-02T12:04:33;3.90;;;1.90;;
3849;SDS011;1940;51.052;13.678;2022-08-02T12:06:59;4.40;;;2.87;;
3849;SDS011;1940;51.052;13.678;2022-08-02T12:09:27;2.13;;;1.93;;
3849;SDS011;1940;51.052;13.678;2022-08-02T12:11:54;2.33;;;2.13;;
3849;SDS011;1940;51.052;13.678;2022-08-02T12:14:22;8.43;;;2.23;;
3849;SDS011;1940;51.052;13.678;2022-08-02T12:16:49;2.60;;;1.80;;
3849;SDS011;1940;51.052;13.678;2022-08-02T12:19:34;2.53;;;2.10;;
3849;SDS011;1940;51.052;13.678;2022-08-02T12:24:50;2.13;;;1.80;;
3849;SDS011;1940;51.052;13.678;2022-08-02T12:27:27;3.73;;;2.60;;
3849;SDS011;1940;51.052;13.678;2022-08-02T12:30:10;2.33;;;1.97;;
3849;SDS011;1940;51.052;13.678;2022-08-02T12:32:40;4.60;;;2.30;;
3849;SDS011;1940;51.052;13.678;2022-08-02T12:35:11;2.00;;;1.83;;
3849;SDS011;1940;51.052;13.678;2022-08-02T12:37:43;2.60;;;1.80;;
3849;SDS011;1940;51.052;13.678;2022-08-02T12:40:20;5.33;;;1.60;;
3849;SDS011;1940;51.052;13.678;2022-08-02T12:42:47;2.27;;;2.10;;
3849;SDS011;1940;51.052;13.678;2022-08-02T12:45:14;1.97;;;1.87;;
3849;SDS011;1940;51.052;13.678;2022-08-02T12:47:47;2.17;;;2.00;;
3849;SDS011;1940;51.052;13.678;2022-08-02T12:52:43;5.63;;;2.27;;
3849;SDS011;1940;51.052;13.678;2022-08-02T12:55:15;1.80;;;1.70;;
3849;SDS011;1940;51.052;13.678;2022-08-02T12:57:52;3.47;;;1.73;;
3849;SDS011;1940;51.052;13.678;2022-08-02T13:00:38;1.77;;;1.67;;
3849;SDS011;1940;51.052;13.678;2022-08-02T13:03:04;1.83;;;1.73;;
3849;SDS011;1940;51.052;13.678;2022-08-02T13:05:32;3.83;;;3.53;;
3849;SDS011;1940;51.052;13.678;2022-08-02T13:08:00;1.93;;;1.83;;
3849;SDS011;1940;51.052;13.678;2022-08-02T13:10:26;2.40;;;1.80;;
3849;SDS011;1940;51.052;13.678;2022-08-02T13:12:52;4.47;;;2.87;;
3849;SDS011;1940;51.052;13.678;2022-08-02T13:15:18;4.33;;;2.43;;
3849;SDS011;1940;51.052;13.678;2022-08-02T13:17:45;2.63;;;2.00;;
3849;SDS011;1940;51.052;13.678;2022-08-02T13:20:11;5.20;;;1.87;;
3849;SDS011;1940;51.052;13.678;2022-08-02T13:22:39;1.70;;;1.60;;
3849;SDS011;1940;51.052;13.678;2022-08-02T13:25:06;1.77;;;1.67;;
3849;SDS011;1940;51.052;13.678;2022-08-02T13:27:32;2.37;;;2.17;;
3849;SDS011;1940;51.052;13.678;2022-08-02T13:29:59;2.10;;;1.57;;
3849;SDS011;1940;51.052;13.678;2022-08-02T13:32:25;1.93;;;1.73;;
3849;SDS011;1940;51.052;13.678;2022-08-02T13:34:54;3.33;;;2.90;;
3849;SDS011;1940;51.052;13.678;2022-08-02T13:37:21;2.30;;;2.10;;
3849;SDS011;1940;51.052;13.678;2022-08-02T13:39:46;3.43;;;2.10;;
3849;SDS011;1940;51.052;13.678;2022-08-02T13:42:12;4.17;;;2.50;;
3849;SDS011;1940;51.052;13.678;2022-08-02T13:44:38;2.53;;;2.00;;
3849;SDS011;1940;51.052;13.678;2022-08-02T13:47:03;2.07;;;1.97;;
3849;SDS011;1940;51.052;13.678;2022-08-02T13:49:29;1.90;;;1.80;;
3849;SDS011;1940;51.052;13.678;2022-08-02T13:51:55;3.40;;;1.80;;
3849;SDS011;1940;51.052;13.678;2022-08-02T13:54:20;2.03;;;1.80;;
3849;SDS011;1940;51.052;13.678;2022-08-02T13:56:46;2.37;;;2.10;;
3849;SDS011;1940;51.052;13.678;2022-08-02T13:59:12;3.93;;;2.20;;
3849;SDS011;1940;51.052;13.678;2022-08-02T14:01:38;2.40;;;1.93;;
3849;SDS011;1940;51.052;13.678;2022-08-02T14:04:03;2.20;;;1.87;;
3849;SDS011;1940;51.052;13.678;2022-08-02T14:06:29;3.23;;;1.83;;
3849;SDS011;1940;51.052;13.678;2022-08-02T14:08:55;1.80;;;1.70;;
3849;SDS011;1940;51.052;13.678;2022-08-02T14:11:21;2.10;;;1.93;;
3849;SDS011;1940;51.052;13.678;2022-08-02T14:13:47;3.63;;;1.80;;
3849;SDS011;1940;51.052;13.678;2022-08-02T14:16:15;2.30;;;1.73;;
3849;SDS011;1940;51.052;13.678;2022-08-02T14:18:40;2.47;;;2.17;;
3849;SDS011;1940;51.052;13.678;2022-08-02T14:21:06;4.23;;;1.90;;
3849;SDS011;1940;51.052;13.678;2022-08-02T14:23:32;2.50;;;1.93;;
3849;SDS011;1940;51.052;13.678;2022-08-02T14:25:57;1.60;;;1.50;;
3849;SDS011;1940;51.052;13.678;2022-08-02T14:28:23;1.90;;;1.80;;
3849;SDS011;1940;51.052;13.678;2022-08-02T14:30:50;3.70;;;1.87;;
3849;SDS011;1940;51.052;13.678;2022-08-02T14:33:16;5.03;;;2.17;;
3849;SDS011;1940;51.052;13.678;2022-08-02T14:35:43;1.93;;;1.83;;
3849;SDS011;1940;51.052;13.678;2022-08-02T14:38:08;1.80;;;1.70;;
3849;SDS011;1940;51.052;13.678;2022-08-02T14:40:34;2.87;;;1.80;;
3849;SDS011;1940;51.052;13.678;2022-08-02T14:43:00;1.90;;;1.70;;
3849;SDS011;1940;51.052;13.678;2022-08-02T14:45:26;1.70;;;1.60;;
3849;SDS011;1940;51.052;13.678;2022-08-02T14:47:53;3.50;;;1.90;;
3849;SDS011;1940;51.052;13.678;2022-08-02T14:50:19;4.23;;;2.00;;
3849;SDS011;1940;51.052;13.678;2022-08-02T14:52:46;2.07;;;1.73;;
3849;SDS011;1940;51.052;13.678;2022-08-02T14:55:13;2.10;;;1.90;;
3849;SDS011;1940;51.052;13.678;2022-08-02T14:57:40;1.90;;;1.70;;
3849;SDS011;1940;51.052;13.678;2022-08-02T15:00:06;2.20;;;2.00;;
3849;SDS011;1940;51.052;13.678;2022-08-02T15:02:33;3.63;;;1.80;;
3849;SDS011;1940;51.052;13.678;2022-08-02T15:04:59;1.80;;;1.70;;
3849;SDS011;1940;51.052;13.678;2022-08-02T15:07:25;1.90;;;1.80;;
3849;SDS011;1940;51.052;13.678;2022-08-02T15:09:51;1.80;;;1.70;;
3849;SDS011;1940;51.052;13.678;2022-08-02T15:12:16;2.10;;;1.97;;
3849;SDS011;1940;51.052;13.678;2022-08-02T15:14:42;2.00;;;1.80;;
3849;SDS011;1940;51.052;13.678;2022-08-02T15:17:08;1.70;;;1.60;;
3849;SDS011;1940;51.052;13.678;2022-08-02T15:19:34;2.10;;;2.00;;
3849;SDS011;1940;51.052;13.678;2022-08-02T15:22:00;4.60;;;1.73;;
3849;SDS011;1940;51.052;13.678;2022-08-02T15:24:25;1.70;;;1.60;;
3849;SDS011;1940;51.052;13.678;2022-08-02T15:26:51;3.60;;;1.80;;
3849;SDS011;1940;51.052;13.678;2022-08-02T15:29:18;2.00;;;1.90;;
3849;SDS011;1940;51.052;13.678;2022-08-02T15:31:44;2.70;;;2.50;;
3849;SDS011;1940;51.052;13.678;2022-08-02T15:34:10;3.23;;;1.87;;
3849;SDS011;1940;51.052;13.678;2022-08-02T15:36:37;2.87;;;1.90;;
3849;SDS011;1940;51.052;13.678;2022-08-02T15:39:03;2.30;;;2.10;;
3849;SDS011;1940;51.052;13.678;2022-08-02T15:41:29;2.00;;;1.90;;
3849;SDS011;1940;51.052;13.678;2022-08-02T15:43:55;1.90;;;1.80;;
3849;SDS011;1940;51.052;13.678;2022-08-02T15:46:21;1.70;;;1.60;;
3849;SDS011;1940;51.052;13.678;2022-08-02T15:48:47;2.60;;;2.07;;
3849;SDS011;1940;51.052;13.678;2022-08-02T15:51:13;1.80;;;1.70;;
3849;SDS011;1940;51.052;13.678;2022-08-02T15:53:39;2.23;;;2.03;;
3849;SDS011;1940;51.052;13.678;2022-08-02T15:56:04;3.73;;;2.57;;
3849;SDS011;1940;51.052;13.678;2022-08-02T15:58:31;2.30;;;1.80;;
3849;SDS011;1940;51.052;13.678;2022-08-02T16:00:57;2.37;;;2.17;;